createdAt,value
2018-08-19T00:01:27.661Z,46
2018-08-19T00:11:27.699Z,44
2018-08-19T00:21:26.873Z,45
2018-08-19T00:31:26.746Z,45
2018-08-19T00:41:27.682Z,45
2018-08-19T00:51:27.634Z,45
2018-08-19T01:01:28.122Z,44
2018-08-19T01:11:28.128Z,46
2018-08-19T01:21:28.440Z,43
2018-08-19T01:31:27.373Z,43
2018-08-19T01:41:27.366Z,46
2018-08-19T01:51:27.543Z,46
2018-08-19T02:01:28.387Z,43
2018-08-19T02:11:28.067Z,44
2018-08-19T02:21:27.227Z,43
2018-08-19T02:31:47.170Z,46
2018-08-19T02:41:27.972Z,43
2018-08-19T02:51:27.699Z,44
2018-08-19T03:01:28.093Z,47
2018-08-19T03:11:27.000Z,45
2018-08-19T03:21:27.492Z,46
2018-08-19T03:31:28.790Z,44
2018-08-19T03:41:27.635Z,44
2018-08-19T03:51:27.479Z,47
2018-08-19T04:01:27.445Z,47
2018-08-19T04:11:27.754Z,48
2018-08-19T04:21:27.113Z,47
2018-08-19T04:31:27.781Z,45
2018-08-19T04:41:28.892Z,44
2018-08-19T04:51:28.056Z,45
2018-08-19T05:01:27.621Z,45
2018-08-19T05:11:27.919Z,48
2018-08-19T05:21:28.212Z,46
2018-08-19T05:31:27.365Z,45
2018-08-19T05:41:27.712Z,47
2018-08-19T05:51:27.599Z,45
2018-08-19T06:01:28.676Z,45
2018-08-19T06:11:28.858Z,44
2018-08-19T06:21:27.861Z,45
2018-08-19T06:31:29.297Z,44
2018-08-19T06:41:30.144Z,44
2018-08-19T06:51:27.920Z,46
2018-08-19T07:01:27.547Z,46
2018-08-19T07:11:28.024Z,44
2018-08-19T07:21:27.129Z,45
2018-08-19T07:31:32.514Z,46
2018-08-19T07:41:27.476Z,47
2018-08-19T07:51:27.628Z,46
2018-08-19T08:01:56.288Z,46
2018-08-19T08:11:27.520Z,46
2018-08-19T08:22:17.590Z,43
2018-08-19T08:31:27.626Z,42
2018-08-19T08:41:27.892Z,46
2018-08-19T08:51:26.933Z,44
2018-08-19T09:01:26.981Z,45
2018-08-19T09:11:27.026Z,45
2018-08-19T09:21:27.226Z,45
2018-08-19T09:31:43.533Z,44
2018-08-19T09:41:28.143Z,41
2018-08-19T09:51:27.254Z,41
2018-08-19T10:01:29.733Z,41
2018-08-19T10:11:30.201Z,41
2018-08-19T10:21:27.340Z,44
2018-08-19T10:31:28.091Z,43
2018-08-19T10:41:27.976Z,41
2018-08-19T10:51:27.647Z,42
2018-08-19T11:01:28.908Z,39
2018-08-19T11:11:32.971Z,39
2018-08-19T11:21:48.233Z,39
2018-08-19T11:31:33.140Z,41
2018-08-19T11:41:58.561Z,40
2018-08-19T11:51:45.130Z,36
2018-08-19T12:01:27.464Z,39
2018-08-19T12:21:33.229Z,38
2018-08-19T12:31:28.269Z,39
2018-08-19T12:41:27.502Z,39
2018-08-19T12:51:27.901Z,37
2018-08-19T13:01:27.466Z,38
2018-08-19T13:11:27.669Z,40
2018-08-19T13:21:27.767Z,37
2018-08-19T13:31:27.658Z,37
2018-08-19T13:41:29.156Z,37
2018-08-19T13:51:27.279Z,38
2018-08-19T14:01:27.862Z,39
2018-08-19T14:11:28.911Z,37
2018-08-19T14:21:27.212Z,38
2018-08-19T14:31:27.234Z,41
2018-08-19T14:41:27.514Z,41
2018-08-19T14:51:29.627Z,38
2018-08-19T15:01:28.741Z,37
2018-08-19T15:11:27.684Z,37
2018-08-19T15:21:27.225Z,40
2018-08-19T15:31:27.725Z,39
2018-08-19T15:41:28.548Z,37
2018-08-19T15:51:27.926Z,40
2018-08-19T16:01:44.349Z,37
2018-08-19T16:11:27.239Z,37
2018-08-19T16:21:34.056Z,37
2018-08-19T16:31:27.336Z,40
2018-08-19T16:42:17.510Z,38
2018-08-19T16:51:34.088Z,37
2018-08-19T17:01:32.551Z,37
2018-08-19T17:11:32.993Z,40
2018-08-19T17:21:33.127Z,40
2018-08-19T17:31:32.637Z,38
2018-08-19T17:41:27.950Z,40
2018-08-19T17:51:27.632Z,38
2018-08-19T18:01:27.612Z,37
2018-08-19T18:11:27.586Z,40
2018-08-19T18:21:29.812Z,38
2018-08-19T18:31:46.143Z,38
2018-08-19T18:41:33.603Z,38
2018-08-19T18:51:29.724Z,42
2018-08-19T19:01:28.695Z,38
2018-08-19T19:11:28.404Z,38
2018-08-19T19:21:27.829Z,41
2018-08-19T19:31:28.182Z,42
2018-08-19T19:41:28.155Z,40
2018-08-19T19:51:30.510Z,39
2018-08-19T20:01:27.586Z,39
2018-08-19T20:11:27.901Z,42
2018-08-19T20:21:28.826Z,38
2018-08-19T20:31:28.722Z,39
2018-08-19T20:41:34.217Z,40
2018-08-19T20:51:27.146Z,40
2018-08-19T21:01:33.864Z,39
2018-08-19T21:11:33.948Z,41
2018-08-19T21:21:32.495Z,41
2018-08-19T21:31:27.417Z,43
2018-08-19T21:41:27.668Z,44
2018-08-19T21:51:28.114Z,42
2018-08-19T22:01:27.062Z,42
2018-08-19T22:11:29.018Z,42
2018-08-19T22:21:29.555Z,41
2018-08-19T22:31:27.568Z,42
2018-08-19T22:41:28.501Z,42
2018-08-19T22:51:27.021Z,42
2018-08-19T23:01:27.979Z,42
2018-08-19T23:11:27.232Z,46
2018-08-19T23:21:29.010Z,42
2018-08-19T23:31:27.328Z,45
2018-08-19T23:41:29.248Z,42
2018-08-19T23:51:27.596Z,46
